Time;durP1;ratioP1;P1;durP2;ratioP2;P2;SDS_P1;SDS_P2;PMS_P1;PMS_P2;Temp;Humidity;BMP_temperature;BMP_pressure;BME280_temperature;BME280_humidity;BME280_pressure;Samples;Min_cycle;Max_cycle;Signal;HPM_P1;HPM_P2
2024/03/29 01:44:32;;;;;;;0.40;0.40;;;;;;;6.28;81.96;98822.50;5078974;28;20490;-65
2024/03/29 01:47:00;;;;;;;0.30;0.30;;;;;;;6.22;82.08;98822.47;5095101;28;20048;-65
2024/03/29 01:49:28;;;;;;;0.28;0.28;;;;;;;6.25;82.30;98821.63;5095518;28;20094;-65
2024/03/29 01:51:56;;;;;;;0.30;0.30;;;;;;;6.33;82.25;98830.97;5094899;28;20039;-66
2024/03/29 01:54:24;;;;;;;0.30;0.30;;;;;;;6.39;82.27;98840.25;5095041;28;20043;-65
2024/03/29 01:56:52;;;;;;;0.20;0.20;;;;;;;6.49;82.81;98835.19;5094904;28;20406;-65
2024/03/29 01:59:21;;;;;;;0.50;0.50;;;;;;;6.49;82.22;98840.28;5094632;28;20056;-65
2024/03/29 02:01:49;;;;;;;0.28;0.28;;;;;;;6.39;81.96;98851.22;5094907;28;20047;-65
2024/03/29 02:04:17;;;;;;;0.30;0.30;;;;;;;6.36;82.51;98853.75;5094332;28;20066;-65
2024/03/29 02:06:44;;;;;;;0.20;0.20;;;;;;;6.42;82.19;98846.16;5094778;28;20040;-65
2024/03/29 02:09:12;;;;;;;1.80;0.88;;;;;;;6.38;82.55;98839.38;5094608;28;20040;-66
2024/03/29 02:11:40;;;;;;;0.30;0.30;;;;;;;6.45;81.95;98861.41;5094713;28;20055;-65
2024/03/29 02:14:06;;;;;;;0.20;0.20;;;;;;;6.45;81.92;98860.53;5094592;28;20040;-64
2024/03/29 02:16:37;;;;;;;0.20;0.20;;;;;;;6.33;81.22;98861.38;5094965;28;20036;-65
2024/03/29 02:19:05;;;;;;;0.30;0.30;;;;;;;6.30;81.47;98868.94;5077552;28;20037;-65
2024/03/29 02:21:37;;;;;;;0.30;0.30;;;;;;;6.10;81.78;98852.81;5077647;28;20032;-65
2024/03/29 02:24:10;;;;;;;0.30;0.30;;;;;;;6.26;81.52;98879.91;5077629;28;20486;-65
2024/03/29 02:26:41;;;;;;;0.30;0.30;;;;;;;6.19;81.25;98878.19;5094312;28;20054;-66
2024/03/29 02:29:09;;;;;;;0.20;0.20;;;;;;;6.20;81.22;98884.94;5094291;28;20075;-65
2024/03/29 02:31:37;;;;;;;0.20;0.20;;;;;;;6.19;81.30;98885.78;5094000;28;20048;-66
2024/03/29 02:34:05;;;;;;;0.25;0.25;;;;;;;6.19;81.02;98885.78;5094546;28;20414;-65
2024/03/29 02:36:32;;;;;;;0.30;0.30;;;;;;;6.03;81.04;98876.44;5094214;28;20047;-65
2024/03/29 02:39:00;;;;;;;0.20;0.20;;;;;;;6.03;81.26;98896.69;5077073;28;20081;-65
2024/03/29 02:41:29;;;;;;;0.20;0.20;;;;;;;5.98;81.37;98903.41;5094158;28;20506;-65
2024/03/29 02:43:58;;;;;;;0.35;0.32;;;;;;;5.85;80.86;98906.75;5093821;28;20036;-66
2024/03/29 02:46:25;;;;;;;0.38;0.35;;;;;;;5.76;81.06;98916.78;5077082;28;20044;-65
2024/03/29 02:48:52;;;;;;;0.30;0.30;;;;;;;5.64;80.92;98914.19;5093860;28;20048;-65
2024/03/29 02:51:20;;;;;;;0.30;0.30;;;;;;;5.46;80.99;98914.03;5093914;28;20040;-65
2024/03/29 02:53:47;;;;;;;0.28;0.28;;;;;;;5.39;81.19;98936.78;5093554;28;20044;-65
2024/03/29 02:56:18;;;;;;;0.20;0.20;;;;;;;5.27;81.31;98946.81;5093829;28;20048;-65
2024/03/29 02:58:46;;;;;;;0.25;0.25;;;;;;;5.31;81.65;98956.09;5093668;28;20119;-65
2024/03/29 03:01:14;;;;;;;0.40;0.40;;;;;;;5.38;81.66;98954.47;5093689;28;20047;-65
2024/03/29 03:03:41;;;;;;;0.20;0.20;;;;;;;5.32;81.45;98954.44;5093730;28;20036;-65
2024/03/29 03:06:08;;;;;;;0.17;0.17;;;;;;;5.09;81.45;98966.84;5076706;28;20044;-65
2024/03/29 03:11:21;;;;;;;0.20;0.20;;;;;;;5.33;82.56;98959.50;5110293;28;20040;-65
2024/03/29 03:13:50;;;;;;;0.30;0.30;;;;;;;5.31;83.08;98933.34;5076655;28;20089;-65
2024/03/29 03:16:19;;;;;;;0.50;0.50;;;;;;;5.44;82.79;98946.94;5092749;28;20040;-65
2024/03/29 03:18:47;;;;;;;0.28;0.28;;;;;;;5.50;82.74;98939.38;5093515;28;20043;-65
2024/03/29 03:21:13;;;;;;;3.05;0.73;;;;;;;5.53;82.55;98938.56;5093009;28;20047;-65
2024/03/29 03:23:41;;;;;;;0.40;0.40;;;;;;;5.48;82.56;98935.13;5093381;28;20036;-65
2024/03/29 03:26:08;;;;;;;0.30;0.30;;;;;;;5.38;82.20;98936.75;5093279;28;20075;-65
2024/03/29 03:28:36;;;;;;;0.40;0.40;;;;;;;5.23;82.04;98939.19;5093454;28;20055;-65
2024/03/29 03:31:07;;;;;;;0.28;0.28;;;;;;;5.13;82.26;98948.38;5093143;28;20490;-65
2024/03/29 03:33:35;;;;;;;0.85;0.85;;;;;;;5.13;81.99;98938.25;5093235;28;20085;-65
2024/03/29 03:36:02;;;;;;;0.20;0.20;;;;;;;5.12;82.34;98955.94;5092734;28;20048;-65
2024/03/29 03:38:30;;;;;;;0.20;0.20;;;;;;;5.10;82.54;98960.97;5093061;28;20033;-65
2024/03/29 03:40:56;;;;;;;0.20;0.20;;;;;;;5.13;82.46;98973.66;5093026;28;20047;-65
2024/03/29 03:43:24;;;;;;;0.20;0.20;;;;;;;5.17;82.39;98979.56;5093333;28;20036;-65
2024/03/29 03:45:51;;;;;;;0.30;0.30;;;;;;;5.13;82.16;98971.13;5092942;28;20048;-66
2024/03/29 03:48:20;;;;;;;0.40;0.40;;;;;;;5.15;82.67;98966.94;5076158;28;20044;-65
2024/03/29 03:50:47;;;;;;;0.30;0.30;;;;;;;5.13;82.63;98965.22;5076295;28;20498;-65
2024/03/29 03:53:15;;;;;;;0.20;0.20;;;;;;;5.12;82.34;98966.91;5075644;28;20055;-65
2024/03/29 03:55:41;;;;;;;0.43;0.43;;;;;;;5.08;82.34;98957.59;5092849;28;20040;-65
2024/03/29 03:58:09;;;;;;;0.32;0.32;;;;;;;5.11;82.83;98970.25;5075999;28;20047;-66
2024/03/29 04:00:36;;;;;;;0.40;0.40;;;;;;;5.09;82.64;98976.97;5092804;28;20040;-65
2024/03/29 04:03:04;;;;;;;0.20;0.20;;;;;;;5.07;82.65;98973.59;5092770;28;20040;-65
2024/03/29 04:05:33;;;;;;;0.30;0.30;;;;;;;5.10;82.86;98973.63;5092758;28;20051;-65
2024/03/29 04:08:00;;;;;;;0.30;0.30;;;;;;;5.08;82.62;98975.28;5092389;28;20042;-65
2024/03/29 04:10:27;;;;;;;0.20;0.20;;;;;;;5.11;82.95;98980.34;5092509;28;20094;-65
2024/03/29 04:12:55;;;;;;;0.10;0.10;;;;;;;5.07;83.27;98978.66;5092655;28;20044;-65
2024/03/29 04:15:22;;;;;;;0.50;0.50;;;;;;;5.04;82.97;98987.91;5092702;28;20028;-65
2024/03/29 04:17:49;;;;;;;0.20;0.20;;;;;;;5.01;83.01;99003.03;5092373;28;20390;-65
2024/03/29 04:20:16;;;;;;;0.30;0.30;;;;;;;5.05;83.14;99020.78;5092617;28;20371;-66
2024/03/29 04:22:45;;;;;;;0.45;0.45;;;;;;;5.06;82.91;99027.50;5092569;28;20047;-66
2024/03/29 04:25:12;;;;;;;0.43;0.43;;;;;;;4.94;82.91;99006.31;5092348;28;20394;-66
2024/03/29 04:27:40;;;;;;;0.30;0.30;;;;;;;4.94;83.35;99012.25;5095628;28;20047;-66
2024/03/29 04:30:08;;;;;;;0.20;0.20;;;;;;;4.82;82.60;99018.84;5096688;28;20047;-66
2024/03/29 04:32:36;;;;;;;0.20;0.20;;;;;;;4.70;82.32;99027.94;5096586;28;20040;-65
2024/03/29 04:35:02;;;;;;;0.38;0.38;;;;;;;4.63;82.40;99030.41;5096609;28;20032;-65
2024/03/29 04:37:30;;;;;;;0.20;0.20;;;;;;;4.55;82.61;99024.41;5096271;28;20044;-66
2024/03/29 04:39:59;;;;;;;0.40;0.40;;;;;;;4.59;82.81;99043.81;5079336;28;20077;-65
2024/03/29 04:42:27;;;;;;;0.30;0.30;;;;;;;4.53;82.94;99051.34;5096412;28;20041;-65
2024/03/29 04:44:55;;;;;;;0.30;0.30;;;;;;;4.55;82.92;99065.69;5096091;28;20097;-65
2024/03/29 04:47:23;;;;;;;0.20;0.20;;;;;;;4.61;83.13;99072.47;5096308;28;20622;-65
2024/03/29 04:49:50;;;;;;;0.55;0.55;;;;;;;4.69;83.77;99070.91;5096291;28;20044;-65
2024/03/29 04:52:18;;;;;;;0.20;0.20;;;;;;;4.73;83.82;99067.56;5096268;28;20052;-65
2024/03/29 04:54:46;;;;;;;0.25;0.25;;;;;;;4.75;83.83;99055.84;5096171;28;20055;-65
2024/03/29 04:57:15;;;;;;;0.40;0.40;;;;;;;4.76;83.47;99057.50;5096322;28;20063;-66
2024/03/29 04:59:43;;;;;;;0.30;0.30;;;;;;;4.84;83.76;99052.56;5095752;28;20032;-65
2024/03/29 05:02:10;;;;;;;0.30;0.30;;;;;;;4.93;83.76;99056.03;5096373;28;20093;-65
2024/03/29 05:04:38;;;;;;;0.20;0.20;;;;;;;4.97;83.39;99054.38;5095970;28;20047;-66
2024/03/29 05:07:06;;;;;;;0.90;0.82;;;;;;;5.06;83.67;99062.09;5096145;28;20498;-65
2024/03/29 05:09:32;;;;;;;0.20;0.20;;;;;;;5.15;83.58;99052.91;5095885;28;20043;-66
2024/03/29 05:12:00;;;;;;;0.20;0.20;;;;;;;5.15;83.27;99052.91;5095885;28;20032;-65
2024/03/29 05:14:29;;;;;;;0.20;0.20;;;;;;;5.19;83.63;99069.81;5095920;28;20040;-65
2024/03/29 05:16:57;;;;;;;0.40;0.40;;;;;;;5.27;83.76;99070.75;5095867;28;20044;-66
2024/03/29 05:19:25;;;;;;;0.30;0.30;;;;;;;5.36;83.52;99077.56;5095633;28;20040;-66
2024/03/29 05:21:52;;;;;;;0.73;0.73;;;;;;;5.48;83.61;99079.38;5095710;28;20058;-66
2024/03/29 05:24:21;;;;;;;0.30;0.30;;;;;;;5.56;83.57;99075.25;5095368;28;20044;-65
2024/03/29 05:26:49;;;;;;;0.30;0.30;;;;;;;5.57;83.72;99087.91;5095270;28;20040;-65
2024/03/29 05:29:16;;;;;;;0.30;0.30;;;;;;;5.65;83.96;99087.97;5095224;28;20105;-66
2024/03/29 05:31:46;;;;;;;0.50;0.50;;;;;;;5.78;83.73;99082.19;5095150;28;20033;-65
2024/03/29 05:34:14;;;;;;;0.43;0.43;;;;;;;5.88;83.91;99099.19;5095663;28;20482;-66
2024/03/29 05:36:43;;;;;;;0.70;0.70;;;;;;;5.96;83.33;99098.41;5095373;28;20028;-65
2024/03/29 05:39:11;;;;;;;0.40;0.40;;;;;;;6.09;83.20;99104.44;5094696;28;20092;-65
2024/03/29 05:41:39;;;;;;;0.25;0.25;;;;;;;6.13;83.42;99096.00;5095100;28;20521;-66
2024/03/29 05:44:07;;;;;;;0.35;0.35;;;;;;;6.26;83.36;99102.88;5094982;28;20498;-65
2024/03/29 05:46:34;;;;;;;0.50;0.50;;;;;;;6.38;83.49;99097.88;5095059;28;20498;-65
2024/03/29 05:49:04;;;;;;;0.50;0.50;;;;;;;6.49;82.78;99105.53;5095137;28;20398;-65
2024/03/29 05:51:31;;;;;;;1.02;0.95;;;;;;;6.60;82.94;99094.63;5095190;28;20051;-65
2024/03/29 05:53:59;;;;;;;1.08;0.98;;;;;;;6.65;82.40;99082.81;5094614;28;20048;-66
2024/03/29 05:56:27;;;;;;;0.40;0.40;;;;;;;6.82;82.26;99085.44;5094834;28;20048;-65
2024/03/29 05:58:55;;;;;;;1.08;1.00;;;;;;;6.91;82.47;99089.72;5094915;28;20036;-65
2024/03/29 06:01:23;;;;;;;0.65;0.65;;;;;;;7.07;81.94;99087.25;5095001;28;20045;-65
2024/03/29 06:03:52;;;;;;;0.30;0.30;;;;;;;7.16;81.70;99081.34;5061380;28;20501;-65
2024/03/29 06:06:24;;;;;;;0.60;0.60;;;;;;;7.29;80.84;99083.09;5094853;28;20040;-65
2024/03/29 06:08:52;;;;;;;0.38;0.38;;;;;;;7.26;80.96;99080.53;5077939;28;20143;-65
2024/03/29 06:11:20;;;;;;;0.60;0.60;;;;;;;7.41;80.72;99073.78;5094615;28;20044;-65
2024/03/29 06:19:18;;;;;;;1.25;1.05;;;;;;;8.03;80.49;99090.78;5111400;28;20051;-65
2024/03/29 06:21:47;;;;;;;0.30;0.30;;;;;;;8.13;80.47;99097.56;5077669;28;20040;-65
2024/03/29 06:24:16;;;;;;;0.28;0.28;;;;;;;8.23;80.17;99094.16;5060907;28;20040;-65
2024/03/29 06:26:44;;;;;;;0.40;0.40;;;;;;;8.06;79.37;99099.25;5094265;28;20036;-66
2024/03/29 06:29:11;;;;;;;0.70;0.70;;;;;;;8.03;79.96;99101.81;5094249;28;20067;-65
2024/03/29 06:31:39;;;;;;;0.40;0.40;;;;;;;8.04;79.95;99118.72;5094243;28;20486;-65
2024/03/29 06:34:07;;;;;;;1.58;1.48;;;;;;;8.16;80.25;99133.13;5094261;28;20036;-65
2024/03/29 06:36:35;;;;;;;0.50;0.38;;;;;;;8.39;79.42;99131.47;5094403;28;20517;-66
2024/03/29 06:39:05;;;;;;;7.07;0.77;;;;;;;8.50;79.52;99111.94;5094390;28;20036;-66
2024/03/29 06:41:32;;;;;;;0.32;0.32;;;;;;;8.58;79.19;99106.84;5093807;28;20483;-66
2024/03/29 06:44:00;;;;;;;0.30;0.30;;;;;;;8.75;79.02;99112.75;5093986;28;20093;-66
2024/03/29 06:46:28;;;;;;;0.98;0.98;;;;;;;8.81;78.51;99119.50;5093943;28;20452;-66
2024/03/29 06:48:56;;;;;;;1.27;1.10;;;;;;;8.86;78.76;99128.81;5093864;28;20052;-65
2024/03/29 06:51:24;;;;;;;0.55;0.45;;;;;;;8.87;77.63;99135.63;5093930;28;20044;-66
2024/03/29 06:53:52;;;;;;;0.40;0.40;;;;;;;9.03;77.16;99126.22;5093331;28;20070;-65
2024/03/29 13:48:32;;;;;;;0.70;0.70;;;;;;;16.37;61.60;98842.34;5131965;27;20800;-67
2024/03/29 13:51:00;;;;;;;0.50;0.50;;;;;;;16.38;61.74;98836.31;5113874;28;20043;-67
2024/03/29 13:53:34;;;;;;;0.60;0.60;;;;;;;16.39;62.26;98847.41;5114030;28;20047;-66
2024/03/29 13:56:03;;;;;;;0.73;0.73;;;;;;;16.37;62.59;98849.22;5130937;28;20078;-67
2024/03/29 13:58:31;;;;;;;0.52;0.52;;;;;;;16.36;62.69;98842.41;5130763;28;20047;-69
2024/03/29 14:01:00;;;;;;;0.47;0.47;;;;;;;16.32;62.96;98838.25;5130524;28;20051;-66
2024/03/29 14:03:28;;;;;;;0.82;0.82;;;;;;;16.34;63.59;98839.88;5130408;28;20390;-66
2024/03/29 14:05:57;;;;;;;0.43;0.43;;;;;;;16.39;63.85;98831.97;5130442;28;20134;-66
2024/03/29 14:08:25;;;;;;;0.43;0.43;;;;;;;16.37;63.81;98829.47;5130357;28;20046;-65
2024/03/29 14:10:53;;;;;;;0.70;0.70;;;;;;;16.39;63.86;98816.53;5113561;28;20047;-67
2024/03/29 14:13:21;;;;;;;0.57;0.57;;;;;;;16.41;64.03;98822.47;5130542;28;20040;-66
2024/03/29 14:15:48;;;;;;;0.40;0.40;;;;;;;16.41;63.82;98809.59;5130577;28;20043;-68
2024/03/29 14:18:16;;;;;;;0.68;0.68;;;;;;;16.43;63.97;98818.09;5130419;27;20044;-67
2024/03/29 14:20:44;;;;;;;4.40;0.77;;;;;;;16.48;64.12;98826.50;5130664;28;20389;-66
2024/03/29 14:23:18;;;;;;;0.38;0.38;;;;;;;16.54;64.07;98828.84;5130331;28;20058;-66
2024/03/29 14:25:46;;;;;;;2.05;1.60;;;;;;;16.51;64.33;98809.19;5130361;28;20494;-68
2024/03/29 14:28:13;;;;;;;0.40;0.40;;;;;;;16.61;64.10;98822.56;5129999;28;20413;-67
2024/03/29 14:30:41;;;;;;;0.65;0.65;;;;;;;16.64;64.25;98827.59;5129955;28;20472;-66
2024/03/29 14:33:09;;;;;;;0.73;0.73;;;;;;;16.67;64.14;98817.19;5130200;28;20032;-65
2024/03/29 14:35:37;;;;;;;0.40;0.40;;;;;;;16.72;63.95;98820.44;5130160;28;20036;-67
2024/03/29 14:38:05;;;;;;;0.40;0.40;;;;;;;16.63;64.25;98792.41;5130063;28;20044;-67
2024/03/29 14:40:34;;;;;;;0.40;0.40;;;;;;;16.79;64.51;98801.25;5129858;27;20043;-67
2024/03/29 14:43:02;;;;;;;1.02;1.00;;;;;;;16.86;65.10;98805.25;5130015;28;20059;-65
2024/03/29 14:45:30;;;;;;;1.17;1.10;;;;;;;16.90;65.04;98793.91;5130014;28;20036;-67
2024/03/29 14:47:56;;;;;;;0.40;0.40;;;;;;;16.96;65.37;98788.53;5112118;28;20051;-66
2024/03/29 14:50:24;;;;;;;0.73;0.73;;;;;;;17.02;65.09;98793.41;5112454;28;20401;-69
2024/03/29 14:52:52;;;;;;;1.10;1.00;;;;;;;17.03;65.05;98791.69;5129800;28;20062;-67
2024/03/29 14:55:20;;;;;;;0.70;0.70;;;;;;;17.03;65.08;98795.09;5129852;28;20088;-66
2024/03/29 14:57:49;;;;;;;1.55;1.15;;;;;;;17.04;65.89;98781.28;5111052;28;20040;-68
2024/03/29 15:00:18;;;;;;;0.70;0.70;;;;;;;17.15;65.32;98780.84;5115772;28;20092;-65
2024/03/29 15:02:46;;;;;;;2.15;1.40;;;;;;;17.24;64.72;98778.72;5115957;28;20117;-67
2024/03/29 15:05:14;;;;;;;0.60;0.60;;;;;;;17.26;65.14;98771.75;5098819;28;20382;-68
2024/03/29 15:07:42;;;;;;;0.47;0.47;;;;;;;17.30;65.17;98768.16;5115508;28;20054;-68
2024/03/29 15:10:11;;;;;;;0.30;0.30;;;;;;;17.36;64.70;98762.75;5115750;28;20035;-68
2024/03/29 15:12:38;;;;;;;0.40;0.40;;;;;;;17.36;63.91;98747.25;5115480;28;20020;-68
2024/03/29 15:15:09;;;;;;;0.52;0.52;;;;;;;17.37;63.54;98748.91;5115472;28;20047;-66
2024/03/29 15:17:36;;;;;;;0.40;0.40;;;;;;;17.37;64.03;98754.06;5115952;28;20039;-68
2024/03/29 15:20:05;;;;;;;1.05;0.75;;;;;;;17.23;63.81;98725.47;5115664;28;20039;-68
2024/03/29 15:22:33;;;;;;;0.40;0.40;;;;;;;17.42;63.63;98746.97;5115592;28;20101;-68
2024/03/29 15:25:01;;;;;;;0.50;0.50;;;;;;;17.48;63.64;98745.03;5115238;28;20485;-67
2024/03/29 15:29:07;;;;;;;0.50;0.50;;;;;;;17.55;63.64;98751.66;5114988;28;20043;-67
2024/03/29 15:30:24;;;;;;;0.50;0.50;;;;;;;17.58;63.45;98749.78;5098430;28;20055;-67
2024/03/29 15:32:51;;;;;;;0.50;0.50;;;;;;;17.64;63.33;98751.22;5115378;28;20051;-68
2024/03/29 15:35:19;;;;;;;0.77;0.77;;;;;;;17.62;63.47;98742.72;5098201;28;20070;-68
2024/03/29 15:37:48;;;;;;;0.50;0.50;;;;;;;17.60;63.49;98734.22;5115255;28;20040;-69
2024/03/29 15:40:16;;;;;;;0.40;0.40;;;;;;;17.51;63.67;98738.03;5115258;28;20051;-67
2024/03/29 15:42:43;;;;;;;0.50;0.50;;;;;;;17.48;63.51;98730.41;5115149;28;20077;-69
2024/03/29 15:45:11;;;;;;;1.73;1.33;;;;;;;17.42;63.82;98728.94;5115110;28;20067;-67
2024/03/29 15:47:41;;;;;;;1.67;1.58;;;;;;;17.25;63.65;98708.19;5114486;28;20056;-67
2024/03/29 15:50:09;;;;;;;0.98;0.65;;;;;;;17.30;64.06;98720.88;5115020;28;20039;-68
2024/03/29 15:52:37;;;;;;;1.48;0.93;;;;;;;17.31;63.46;98728.56;5114807;28;20055;-67
2024/03/29 15:55:05;;;;;;;0.52;0.52;;;;;;;17.32;63.52;98730.22;5114949;28;20031;-67
2024/03/29 15:57:33;;;;;;;1.30;1.20;;;;;;;17.34;63.66;98728.44;5114811;28;20524;-67
2024/03/29 16:00:01;;;;;;;0.73;0.70;;;;;;;17.33;63.93;98721.59;5115473;28;20048;-70
2024/03/29 16:02:48;;;;;;;0.50;0.50;;;;;;;17.29;63.74;98730.38;5114808;28;20053;-68
2024/03/29 16:05:16;;;;;;;0.70;0.70;;;;;;;17.26;63.93;98722.75;5114509;28;20443;-68
2024/03/29 16:07:46;;;;;;;1.02;1.02;;;;;;;17.20;64.26;98720.44;5114460;28;20051;-68
2024/03/29 16:10:14;;;;;;;0.50;0.50;;;;;;;17.22;64.17;98722.97;5113626;28;20050;-68
2024/03/29 16:12:42;;;;;;;0.45;0.45;;;;;;;17.21;64.40;98724.69;5114678;28;20088;-69
2024/03/29 16:15:11;;;;;;;0.63;0.63;;;;;;;17.17;64.63;98715.44;5114507;28;20023;-69
2024/03/29 16:17:40;;;;;;;0.60;0.60;;;;;;;17.11;64.83;98715.69;5114520;28;20047;-68
2024/03/29 16:20:08;;;;;;;0.50;0.50;;;;;;;17.09;65.01;98712.31;5114441;28;20043;-68
2024/03/29 16:22:36;;;;;;;4.28;1.63;;;;;;;17.00;64.79;98697.25;5114415;28;20113;-69
2024/03/29 16:25:03;;;;;;;1.17;1.02;;;;;;;17.11;64.87;98715.69;5114359;28;20039;-68
2024/03/29 16:27:31;;;;;;;0.40;0.40;;;;;;;17.14;64.39;98714.72;5114356;28;20031;-67
2024/03/29 16:29:58;;;;;;;0.50;0.50;;;;;;;17.16;64.25;98716.31;5097271;28;20043;-67
2024/03/29 16:32:25;;;;;;;1.08;1.05;;;;;;;17.14;64.14;98709.56;5114104;28;20040;-67
2024/03/29 16:34:53;;;;;;;1.30;1.10;;;;;;;17.09;64.49;98701.16;5113986;28;20085;-68
2024/03/29 16:37:23;;;;;;;1.08;0.90;;;;;;;17.06;64.29;98707.28;5113847;28;20058;-68
2024/03/29 16:39:50;;;;;;;0.40;0.40;;;;;;;17.01;64.43;98703.25;5114412;28;20028;-68
2024/03/29 16:42:18;;;;;;;0.60;0.60;;;;;;;16.98;64.54;98705.94;5113979;28;20040;-69
2024/03/29 16:44:45;;;;;;;0.40;0.40;;;;;;;16.93;65.00;98711.31;5114292;28;20036;-68
2024/03/29 16:47:12;;;;;;;0.95;0.93;;;;;;;16.89;65.04;98703.78;5113273;28;20043;-68
2024/03/29 16:49:39;;;;;;;0.43;0.43;;;;;;;16.86;65.24;98709.88;5113818;28;20085;-67
2024/03/29 16:52:08;;;;;;;1.05;0.55;;;;;;;16.69;65.24;98689.97;5113561;28;20051;-67
2024/03/29 16:54:35;;;;;;;0.60;0.60;;;;;;;16.67;65.49;98688.34;5096897;28;20055;-68
2024/03/29 16:57:06;;;;;;;0.52;0.52;;;;;;;16.76;65.67;98708.59;5113833;28;20055;-67
2024/03/29 16:59:33;;;;;;;0.50;0.50;;;;;;;16.72;66.00;98701.91;5113484;28;20122;-69
2024/03/29 17:02:01;;;;;;;0.52;0.52;;;;;;;16.66;66.24;98691.81;5113700;28;20044;-69
2024/03/29 17:04:28;;;;;;;0.40;0.40;;;;;;;16.65;66.45;98690.16;5113674;28;20040;-68
2024/03/29 17:06:56;;;;;;;0.55;0.50;;;;;;;16.61;66.75;98688.59;5113778;28;20039;-69
2024/03/29 17:09:43;;;;;;;0.93;0.93;;;;;;;16.58;66.69;98689.56;5113153;28;20078;-68
2024/03/29 17:12:14;;;;;;;1.08;1.08;;;;;;;16.54;66.98;98697.47;5079994;28;20071;-69
2024/03/29 17:14:41;;;;;;;0.70;0.70;;;;;;;16.46;66.60;98678.91;5079643;28;20059;-67
2024/03/29 17:17:09;;;;;;;0.40;0.40;;;;;;;16.52;67.02;98696.69;5113149;28;20494;-66
2024/03/29 17:19:36;;;;;;;1.08;0.93;;;;;;;16.49;66.75;98699.34;5113155;28;20498;-68
2024/03/29 17:22:05;;;;;;;1.10;1.02;;;;;;;16.45;67.03;98702.97;5096116;28;20453;-67
2024/03/29 17:24:32;;;;;;;0.50;0.50;;;;;;;16.39;67.44;98693.75;5113015;28;20039;-69
2024/03/29 17:27:01;;;;;;;1.08;0.98;;;;;;;16.35;67.84;98691.34;5113331;28;20035;-69
2024/03/29 17:29:28;;;;;;;0.35;0.35;;;;;;;16.28;67.90;98689.91;5112860;28;20039;-67
2024/03/29 17:31:56;;;;;;;0.77;0.77;;;;;;;16.27;68.04;98690.84;5113261;28;20035;-68
2024/03/29 17:34:23;;;;;;;0.40;0.40;;;;;;;16.27;67.87;98685.69;5113258;28;20047;-68
2024/03/29 17:36:51;;;;;;;1.67;0.80;;;;;;;16.26;67.80;98686.56;5113141;28;20054;-68
2024/03/29 17:39:18;;;;;;;0.55;0.55;;;;;;;16.23;68.24;98696.97;5113111;28;20065;-68
2024/03/29 17:41:47;;;;;;;0.50;0.50;;;;;;;16.25;68.01;98695.19;5112767;28;20451;-68
2024/03/29 17:44:15;;;;;;;0.70;0.70;;;;;;;16.22;68.09;98700.47;5113161;28;20172;-68
2024/03/29 17:46:44;;;;;;;0.60;0.60;;;;;;;16.16;67.97;98695.56;5112731;28;20782;-68
2024/03/29 17:49:10;;;;;;;5.10;1.85;;;;;;;16.23;67.71;98691.84;5112592;28;20043;-68
2024/03/29 17:51:38;;;;;;;0.45;0.45;;;;;;;16.26;67.35;98696.88;5112964;28;20048;-68
2024/03/29 17:54:05;;;;;;;0.70;0.70;;;;;;;16.29;67.60;98704.50;5113019;28;20036;-68
2024/03/29 17:56:32;;;;;;;0.30;0.30;;;;;;;16.26;67.43;98712.31;5112943;28;20028;-68
2024/03/29 17:59:00;;;;;;;1.63;0.70;;;;;;;16.24;67.42;98711.56;5112894;28;20047;-68
2024/03/29 18:01:29;;;;;;;1.00;0.75;;;;;;;16.25;67.00;98705.47;5112633;28;20409;-69
2024/03/29 18:03:56;;;;;;;0.40;0.40;;;;;;;16.27;66.71;98701.94;5112689;28;20122;-68
2024/03/29 18:06:23;;;;;;;0.60;0.60;;;;;;;16.26;66.92;98704.59;5112907;28;20036;-69
2024/03/29 18:08:50;;;;;;;0.70;0.70;;;;;;;16.26;66.35;98710.59;5112580;28;20043;-68
2024/03/29 18:11:19;;;;;;;2.50;0.95;;;;;;;16.30;66.37;98712.13;5095865;28;20043;-68
2024/03/29 18:13:47;;;;;;;0.85;0.77;;;;;;;16.30;66.30;98717.28;5112521;28;20079;-69
2024/03/29 18:16:14;;;;;;;0.40;0.40;;;;;;;16.30;66.50;98721.59;5113372;28;20040;-69
2024/03/29 18:18:47;;;;;;;15.43;1.05;;;;;;;16.31;66.12;98715.56;5112719;28;20035;-68
2024/03/29 18:21:15;;;;;;;0.57;0.57;;;;;;;16.27;66.05;98719.16;5095883;28;20048;-66
2024/03/29 18:23:42;;;;;;;1.02;0.93;;;;;;;16.26;66.37;98717.47;5112488;28;20044;-68
2024/03/29 18:26:10;;;;;;;0.57;0.57;;;;;;;16.21;66.44;98716.81;5112646;28;20039;-68
2024/03/29 18:28:36;;;;;;;0.98;0.90;;;;;;;16.19;66.31;98721.19;5095505;28;20104;-68
2024/03/29 18:31:08;;;;;;;0.85;0.73;;;;;;;16.20;65.91;98728.00;5095604;28;20051;-68
2024/03/29 18:33:35;;;;;;;0.60;0.60;;;;;;;16.26;65.66;98726.03;5113650;28;20044;-68
2024/03/29 18:36:06;;;;;;;1.17;1.10;;;;;;;16.32;65.17;98723.22;5099509;28;20044;-68
2024/03/29 18:38:34;;;;;;;0.88;0.73;;;;;;;16.35;64.91;98717.94;5116253;28;20413;-69
2024/03/29 18:41:02;;;;;;;0.50;0.50;;;;;;;16.37;64.98;98717.88;5116255;28;20032;-67
2024/03/29 18:43:29;;;;;;;0.30;0.30;;;;;;;16.34;65.07;98726.56;5116369;28;20039;-67
2024/03/29 18:45:58;;;;;;;4.97;1.67;;;;;;;16.38;64.65;98722.13;5116670;28;20035;-68
2024/03/29 18:48:26;;;;;;;2.65;1.13;;;;;;;16.37;64.77;98712.72;5115712;28;20405;-68
2024/03/29 18:50:54;;;;;;;0.93;0.93;;;;;;;16.35;64.97;98711.94;5099162;28;20408;-68
2024/03/29 18:53:23;;;;;;;0.47;0.47;;;;;;;16.28;64.98;98711.38;5116181;28;20401;-70
2024/03/29 18:56:00;;;;;;;0.70;0.70;;;;;;;16.32;64.79;98717.22;5116170;28;20047;-69
2024/03/29 18:58:28;;;;;;;0.40;0.40;;;;;;;16.39;64.53;98718.66;5116156;28;20054;-69
2024/03/29 19:00:56;;;;;;;7.88;0.68;;;;;;;16.44;64.05;98727.88;5115954;28;20043;-67
2024/03/29 19:03:23;;;;;;;2.05;0.70;;;;;;;16.47;64.03;98721.78;5115746;28;20035;-68
2024/03/29 19:05:51;;;;;;;0.50;0.50;;;;;;;16.43;63.84;98720.22;5116019;28;20092;-67
2024/03/29 19:08:18;;;;;;;0.52;0.52;;;;;;;16.40;64.19;98726.34;5115782;28;20144;-68
2024/03/29 19:10:47;;;;;;;1.25;1.15;;;;;;;16.36;64.16;98718.78;5115811;28;20051;-69
2024/03/29 19:13:14;;;;;;;0.47;0.47;;;;;;;16.30;64.23;98724.16;5115857;28;20557;-68
2024/03/29 19:15:41;;;;;;;2.97;1.88;;;;;;;16.28;64.50;98721.66;5098743;28;20050;-68
2024/03/29 19:18:12;;;;;;;0.32;0.32;;;;;;;16.23;64.40;98717.59;5115757;28;20036;-69
2024/03/29 19:20:39;;;;;;;3.35;1.38;;;;;;;16.20;64.58;98718.53;5098731;28;20052;-68
2024/03/29 19:23:06;;;;;;;0.63;0.55;;;;;;;16.15;64.95;98728.16;5115320;28;20397;-68
2024/03/29 19:25:33;;;;;;;0.88;0.80;;;;;;;16.14;64.66;98716.22;5115630;28;20050;-67
2024/03/29 19:28:02;;;;;;;0.50;0.50;;;;;;;16.14;64.70;98718.78;5115461;28;20058;-69
2024/03/29 19:30:29;;;;;;;0.40;0.40;;;;;;;16.15;64.79;98729.94;5098522;28;20052;-68
2024/03/29 19:32:58;;;;;;;0.40;0.40;;;;;;;16.12;64.65;98725.75;5115401;28;20047;-68
2024/03/29 19:35:25;;;;;;;0.43;0.43;;;;;;;16.03;64.70;98706.31;5098356;28;20035;-68
2024/03/29 19:37:53;;;;;;;0.77;0.77;;;;;;;16.12;64.55;98730.03;5115201;28;20047;-68
2024/03/29 19:40:20;;;;;;;0.82;0.60;;;;;;;16.12;64.80;98724.91;5098703;28;20044;-67
2024/03/29 19:42:48;;;;;;;0.50;0.50;;;;;;;16.09;64.81;98723.28;5115189;28;20028;-69
2024/03/29 19:45:16;;;;;;;0.75;0.75;;;;;;;16.04;64.88;98713.16;5115378;28;20044;-68
2024/03/29 19:47:51;;;;;;;0.77;0.77;;;;;;;16.03;64.90;98713.19;5114338;28;20047;-68
2024/03/29 19:50:18;;;;;;;1.75;0.70;;;;;;;16.00;64.89;98719.28;5098221;28;20047;-67
2024/03/29 19:52:45;;;;;;;0.40;0.40;;;;;;;15.95;64.86;98723.81;5097989;28;20039;-68
2024/03/29 19:55:12;;;;;;;2.33;1.98;;;;;;;15.99;64.74;98724.50;5114967;28;20489;-67
2024/03/29 19:57:40;;;;;;;0.40;0.40;;;;;;;16.04;64.77;98726.03;5114885;28;20409;-67
2024/03/29 20:00:07;;;;;;;0.88;0.88;;;;;;;16.06;64.32;98716.50;5114586;28;20501;-67
2024/03/29 20:02:36;;;;;;;1.17;0.88;;;;;;;16.05;64.56;98725.13;5114826;28;20036;-68
2024/03/29 20:05:06;;;;;;;0.65;0.65;;;;;;;16.04;64.26;98723.44;5115141;28;20040;-68
2024/03/29 20:07:34;;;;;;;1.33;1.23;;;;;;;16.05;64.01;98735.41;5114709;28;20048;-69
2024/03/29 20:10:00;;;;;;;1.40;1.30;;;;;;;15.94;64.00;98704.09;5114453;28;20081;-68
2024/03/29 20:12:28;;;;;;;0.95;0.88;;;;;;;16.05;64.22;98721.72;5114432;28;20404;-68
2024/03/29 20:14:56;;;;;;;0.45;0.45;;;;;;;16.00;64.41;98726.19;5114287;28;20088;-68
2024/03/29 20:17:23;;;;;;;0.40;0.40;;;;;;;15.94;64.21;98727.25;5114570;28;20040;-68
2024/03/29 20:19:54;;;;;;;0.55;0.55;;;;;;;15.94;64.62;98721.28;5114212;28;20101;-67
2024/03/29 20:22:21;;;;;;;2.60;1.27;;;;;;;15.96;64.42;98728.03;5114559;28;20489;-67
2024/03/29 20:24:48;;;;;;;0.70;0.70;;;;;;;15.97;64.40;98732.31;5114080;28;20481;-67